createdAt,value
2016-08-28T00:01:03.063Z,0
2016-08-28T00:01:48.173Z,0
2016-08-28T00:02:48.203Z,0
2016-08-28T00:03:48.215Z,0
2016-08-28T00:04:48.242Z,0
2016-08-28T00:05:48.286Z,0
2016-08-28T00:07:03.220Z,0
2016-08-28T00:08:03.300Z,0
2016-08-28T00:08:48.379Z,0
2016-08-28T00:09:48.394Z,0
2016-08-28T00:10:48.418Z,0
2016-08-28T00:11:48.456Z,0
2016-08-28T00:12:48.469Z,0
2016-08-28T00:13:48.490Z,0
2016-08-28T00:14:48.536Z,0
2016-08-28T00:15:48.566Z,0
2016-08-28T00:17:03.516Z,0
2016-08-28T00:17:48.594Z,0
2016-08-28T00:18:48.665Z,0
2016-08-28T00:19:48.651Z,0
2016-08-28T00:20:48.694Z,0
2016-08-28T00:21:48.717Z,0
2016-08-28T00:22:48.764Z,0
2016-08-28T00:24:18.622Z,0
2016-08-28T00:25:03.724Z,0
2016-08-28T00:26:03.741Z,0
2016-08-28T00:28:03.820Z,0
2016-08-28T00:28:48.972Z,0
2016-08-28T00:29:48.942Z,0
2016-08-28T00:30:48.954Z,0
2016-08-28T00:31:48.988Z,0
2016-08-28T00:32:49.009Z,0
2016-08-28T00:33:49.050Z,0
2016-08-28T00:34:49.080Z,0
2016-08-28T00:36:04.019Z,0
2016-08-28T00:36:49.140Z,0
2016-08-28T00:37:49.152Z,0
2016-08-28T00:40:04.144Z,0
2016-08-28T00:41:04.154Z,0
2016-08-28T00:43:04.206Z,0
2016-08-28T00:43:49.316Z,0
2016-08-28T00:44:49.346Z,0
2016-08-28T00:45:49.392Z,0
2016-08-28T00:46:49.397Z,0
2016-08-28T00:48:04.356Z,0
2016-08-28T00:48:49.450Z,0
2016-08-28T00:49:49.499Z,0
2016-08-28T00:50:49.509Z,0
2016-08-28T00:51:49.544Z,0
2016-08-28T00:52:49.564Z,0
2016-08-28T00:53:49.615Z,0
2016-08-28T00:55:04.543Z,0
2016-08-28T00:56:04.568Z,0
2016-08-28T00:56:49.686Z,0
2016-08-28T00:58:49.748Z,0
2016-08-28T00:59:49.814Z,0
2016-08-28T01:00:49.788Z,0
2016-08-28T01:01:49.808Z,0
2016-08-28T01:03:04.765Z,0
2016-08-28T01:03:49.899Z,0
2016-08-28T01:04:49.893Z,0
2016-08-28T01:05:49.914Z,0
2016-08-28T01:06:49.967Z,0
2016-08-28T01:08:04.904Z,0
2016-08-28T01:08:50.011Z,0
2016-08-28T01:09:50.029Z,0
2016-08-28T01:10:50.063Z,0
2016-08-28T01:11:50.086Z,0
2016-08-28T01:12:50.121Z,0
2016-08-28T01:14:05.084Z,0
2016-08-28T01:14:50.179Z,0
2016-08-28T01:15:50.224Z,0
2016-08-28T01:16:50.215Z,0
2016-08-28T01:17:50.269Z,0
2016-08-28T01:18:50.274Z,0
2016-08-28T01:20:05.227Z,0
2016-08-28T01:20:50.341Z,0
2016-08-28T01:21:50.379Z,0
2016-08-28T01:22:50.379Z,0
2016-08-28T01:24:05.343Z,0
2016-08-28T01:24:50.449Z,0
2016-08-28T01:25:50.462Z,0
2016-08-28T01:27:05.424Z,0
2016-08-28T01:27:50.525Z,0
2016-08-28T01:28:50.577Z,0
2016-08-28T01:30:05.524Z,0
2016-08-28T01:30:50.600Z,0
2016-08-28T01:31:50.648Z,0
2016-08-28T01:32:50.687Z,0
2016-08-28T01:33:50.683Z,0
2016-08-28T01:34:50.714Z,0
2016-08-28T01:35:50.734Z,0
2016-08-28T01:36:50.779Z,0
2016-08-28T01:38:50.824Z,0
2016-08-28T01:39:50.870Z,0
2016-08-28T01:40:52.274Z,0
2016-08-28T01:41:50.896Z,0
2016-08-28T01:43:05.847Z,0
2016-08-28T01:43:50.969Z,0
2016-08-28T01:44:50.984Z,0
2016-08-28T01:46:05.945Z,0
2016-08-28T01:46:51.052Z,0
2016-08-28T01:47:51.053Z,0
2016-08-28T01:48:51.082Z,0
2016-08-28T01:49:51.118Z,0
2016-08-28T01:50:51.150Z,0
2016-08-28T01:51:51.166Z,0
2016-08-28T01:52:51.221Z,0
2016-08-28T01:53:51.222Z,0
2016-08-28T01:54:51.273Z,0
2016-08-28T01:55:51.287Z,0
2016-08-28T01:57:06.226Z,0
2016-08-28T01:57:51.348Z,0
2016-08-28T01:59:06.306Z,0
2016-08-28T01:59:51.389Z,0
2016-08-28T02:00:51.428Z,0
2016-08-28T02:01:51.436Z,0
2016-08-28T02:02:51.480Z,0
2016-08-28T02:03:51.497Z,0
2016-08-28T02:04:51.510Z,0
2016-08-28T02:05:51.553Z,0
2016-08-28T02:06:51.680Z,0
2016-08-28T02:07:51.597Z,0
2016-08-28T02:09:06.570Z,0
2016-08-28T02:09:51.661Z,0
2016-08-28T02:11:06.611Z,0
2016-08-28T02:11:51.724Z,0
2016-08-28T02:13:51.772Z,0
2016-08-28T02:15:06.734Z,0
2016-08-28T02:15:51.833Z,0
2016-08-28T02:16:51.868Z,0
2016-08-28T02:17:51.866Z,0
2016-08-28T02:18:51.919Z,0
2016-08-28T02:19:51.922Z,0
2016-08-28T02:20:51.972Z,0
2016-08-28T02:21:51.979Z,0
2016-08-28T02:22:52.017Z,0
2016-08-28T02:23:52.026Z,0
2016-08-28T02:25:07.000Z,0
2016-08-28T02:25:52.081Z,0
2016-08-28T02:26:52.108Z,0
2016-08-28T02:27:52.147Z,0
2016-08-28T02:29:07.105Z,0
2016-08-28T02:30:07.120Z,0
2016-08-28T02:30:52.934Z,0
2016-08-28T02:31:52.244Z,0
2016-08-28T02:33:07.214Z,0
2016-08-28T02:33:52.305Z,0
2016-08-28T02:34:52.338Z,0
2016-08-28T02:35:52.366Z,0
2016-08-28T02:36:52.384Z,0
2016-08-28T02:37:52.401Z,0
2016-08-28T02:38:52.431Z,0
2016-08-28T02:39:52.487Z,0
2016-08-28T02:40:52.553Z,0
2016-08-28T02:41:52.524Z,0
2016-08-28T02:42:52.543Z,0
2016-08-28T02:43:52.573Z,0
2016-08-28T02:44:52.602Z,0
2016-08-28T02:45:52.641Z,0
2016-08-28T02:47:07.616Z,0
2016-08-28T02:47:52.690Z,0
2016-08-28T02:50:52.764Z,0
2016-08-28T02:52:52.848Z,0
2016-08-28T02:53:52.836Z,0
2016-08-28T02:54:52.872Z,0
2016-08-28T02:55:52.911Z,0
2016-08-28T02:57:07.879Z,0
2016-08-28T02:57:52.945Z,0
2016-08-28T02:58:52.985Z,0
2016-08-28T02:59:52.997Z,0
2016-08-28T03:00:53.046Z,0
2016-08-28T03:02:07.982Z,0
2016-08-28T03:03:08.002Z,0
2016-08-28T03:03:53.112Z,0
2016-08-28T03:04:53.141Z,0
2016-08-28T03:05:53.158Z,0
2016-08-28T03:06:53.180Z,0
2016-08-28T03:07:53.273Z,0
2016-08-28T03:08:53.232Z,0
2016-08-28T03:09:53.299Z,0
2016-08-28T03:10:53.301Z,0
2016-08-28T03:11:53.324Z,0
2016-08-28T03:12:53.362Z,0
2016-08-28T03:13:53.369Z,0
2016-08-28T03:14:53.435Z,0
2016-08-28T03:15:53.432Z,0
2016-08-28T03:17:08.374Z,0
2016-08-28T03:18:08.411Z,0
2016-08-28T03:18:53.514Z,0
2016-08-28T03:19:53.524Z,0
2016-08-28T03:20:53.573Z,0
2016-08-28T03:21:53.580Z,0
2016-08-28T03:23:08.542Z,0
2016-08-28T03:23:53.635Z,0
2016-08-28T03:24:53.662Z,0
2016-08-28T03:25:53.697Z,0
2016-08-28T03:26:53.740Z,0
2016-08-28T03:27:53.753Z,0
2016-08-28T03:28:53.784Z,0
2016-08-28T03:29:53.791Z,0
2016-08-28T03:31:08.745Z,4
2016-08-28T03:32:53.953Z,0
2016-08-28T03:34:08.852Z,4
2016-08-28T03:34:53.938Z,4
2016-08-28T03:35:53.984Z,4
2016-08-28T03:36:53.990Z,4
2016-08-28T03:37:54.017Z,4
2016-08-28T03:38:54.032Z,8
2016-08-28T03:40:09.003Z,4
2016-08-28T03:40:54.091Z,12
2016-08-28T03:41:54.120Z,8
2016-08-28T03:42:54.147Z,12
2016-08-28T03:43:54.171Z,16
2016-08-28T03:44:54.215Z,16
2016-08-28T03:45:54.216Z,16
2016-08-28T03:46:54.256Z,24
2016-08-28T03:47:54.287Z,28
2016-08-28T03:48:54.296Z,32
2016-08-28T03:50:09.261Z,36
2016-08-28T03:50:54.366Z,44
2016-08-28T03:51:54.373Z,48
2016-08-28T03:52:54.417Z,56
2016-08-28T03:53:54.429Z,64
2016-08-28T03:54:54.490Z,72
2016-08-28T03:55:54.485Z,84
2016-08-28T03:56:54.551Z,96
2016-08-28T03:57:54.529Z,104
2016-08-28T03:58:54.589Z,120
2016-08-28T03:59:54.598Z,136
2016-08-28T04:00:54.635Z,148
2016-08-28T04:01:54.656Z,168
2016-08-28T04:02:54.671Z,184
2016-08-28T04:03:54.700Z,204
2016-08-28T04:05:09.655Z,228
2016-08-28T04:06:09.671Z,248
2016-08-28T04:07:54.807Z,292
2016-08-28T04:08:54.833Z,316
2016-08-28T04:09:54.868Z,344
2016-08-28T04:10:54.884Z,372
2016-08-28T04:11:54.915Z,400
2016-08-28T04:12:54.939Z,436
2016-08-28T04:13:55.683Z,468
2016-08-28T04:14:55.006Z,504
2016-08-28T04:15:55.012Z,540
2016-08-28T04:16:55.037Z,576
2016-08-28T04:17:55.069Z,620
2016-08-28T04:18:55.100Z,660
2016-08-28T04:20:10.039Z,716
2016-08-28T04:21:55.180Z,796
2016-08-28T04:22:55.201Z,848
2016-08-28T04:23:55.243Z,896
2016-08-28T04:24:55.298Z,948
2016-08-28T04:26:10.209Z,1012
2016-08-28T04:26:55.306Z,1052
2016-08-28T04:27:55.333Z,1112
2016-08-28T04:28:55.366Z,1164
2016-08-28T04:29:55.402Z,1228
2016-08-28T04:30:55.415Z,1284
2016-08-28T04:31:55.482Z,1348
2016-08-28T04:32:55.470Z,1408
2016-08-28T04:34:10.411Z,1488
2016-08-28T04:34:56.226Z,1536
2016-08-28T04:35:55.541Z,1600
2016-08-28T04:37:10.499Z,1684
2016-08-28T04:37:55.600Z,1732
2016-08-28T04:38:55.633Z,1804
2016-08-28T04:40:10.591Z,1892
2016-08-28T04:40:55.689Z,1948
2016-08-28T04:42:10.628Z,2040
2016-08-28T04:42:55.726Z,2100
2016-08-28T04:43:55.745Z,2552
2016-08-28T04:45:10.707Z,3736
2016-08-28T04:45:55.823Z,4732
2016-08-28T04:46:55.820Z,7020
2016-08-28T04:47:56.578Z,9728
2016-08-28T04:48:55.887Z,16832
2016-08-28T04:49:55.936Z,20672
2016-08-28T04:51:10.861Z,21440
2016-08-28T04:51:55.973Z,21696
2016-08-28T04:53:10.923Z,21888
2016-08-28T04:53:56.020Z,22752
2016-08-28T04:55:56.068Z,25792
2016-08-28T04:56:56.129Z,25760
2016-08-28T04:58:56.418Z,26432
2016-08-28T04:59:56.256Z,27360
2016-08-28T05:00:56.215Z,28576
2016-08-28T05:01:56.271Z,29056
2016-08-28T05:02:56.277Z,29920
2016-08-28T05:03:56.323Z,30496
2016-08-28T05:04:56.338Z,32256
2016-08-28T05:05:56.384Z,31552
2016-08-28T05:06:56.403Z,31072
2016-08-28T05:07:56.452Z,32672
2016-08-28T05:09:11.381Z,34144
2016-08-28T05:09:56.501Z,34144
2016-08-28T05:10:56.534Z,33792
2016-08-28T05:12:11.488Z,34400
2016-08-28T05:12:56.586Z,35424
2016-08-28T05:13:56.625Z,35936
2016-08-28T05:14:56.638Z,35392
2016-08-28T05:15:56.682Z,29504
2016-08-28T05:16:56.713Z,14720
2016-08-28T05:17:56.749Z,5404
2016-08-28T05:18:56.778Z,4704
2016-08-28T05:19:56.804Z,4636
2016-08-28T05:20:56.841Z,4436
2016-08-28T05:21:56.869Z,4460
2016-08-28T05:22:56.923Z,4460
2016-08-28T05:23:56.922Z,8000
2016-08-28T05:25:11.900Z,15840
2016-08-28T05:25:57.009Z,12900
2016-08-28T05:26:57.041Z,7924
2016-08-28T05:28:11.986Z,8816
2016-08-28T05:28:57.085Z,9096
2016-08-28T05:29:57.828Z,5976
2016-08-28T05:30:57.154Z,5888
2016-08-28T05:31:57.194Z,5732
2016-08-28T05:32:57.915Z,4956
2016-08-28T05:33:57.245Z,4848
2016-08-28T05:35:12.193Z,5108
2016-08-28T05:36:57.323Z,9052
2016-08-28T05:37:57.362Z,28256
2016-08-28T05:38:57.382Z,31680
2016-08-28T05:40:13.405Z,17856
2016-08-28T05:41:12.379Z,16096
2016-08-28T05:42:12.405Z,16896
2016-08-28T05:42:57.508Z,18496
2016-08-28T05:43:57.538Z,13772
2016-08-28T05:44:57.572Z,9476
2016-08-28T05:46:57.611Z,20512
2016-08-28T05:47:57.646Z,17568
2016-08-28T05:48:57.722Z,25440
2016-08-28T05:49:57.715Z,41888
2016-08-28T05:50:57.733Z,50752
2016-08-28T05:51:57.829Z,60032
2016-08-28T05:52:57.822Z,61664
2016-08-28T05:53:57.827Z,61984
2016-08-28T05:54:57.866Z,58976
2016-08-28T05:56:12.813Z,59360
2016-08-28T05:56:57.914Z,62176
2016-08-28T05:57:57.958Z,64736
2016-08-28T05:58:58.007Z,63008
2016-08-28T05:59:58.013Z,61440
2016-08-28T06:00:58.066Z,64352
2016-08-28T06:01:58.134Z,63936
2016-08-28T06:02:58.127Z,63616
2016-08-28T06:03:58.168Z,64000
2016-08-28T06:04:58.192Z,63744
2016-08-28T06:06:13.151Z,64416
2016-08-28T06:06:58.276Z,63328
2016-08-28T06:07:58.294Z,62912
2016-08-28T06:08:58.353Z,68704
2016-08-28T06:10:58.388Z,70560
2016-08-28T06:12:13.361Z,70688
2016-08-28T06:12:58.469Z,66144
2016-08-28T06:13:58.531Z,63616
2016-08-28T06:14:58.530Z,67136
2016-08-28T06:15:58.572Z,64960
2016-08-28T06:17:13.534Z,65920
2016-08-28T06:17:58.661Z,66080
2016-08-28T06:18:58.664Z,73344
2016-08-28T06:20:58.740Z,75264
2016-08-28T06:22:13.713Z,73664
2016-08-28T06:22:58.843Z,76352
2016-08-28T06:23:58.846Z,77280
2016-08-28T06:24:59.615Z,76384
2016-08-28T06:26:13.860Z,77056
2016-08-28T06:27:13.883Z,75584
2016-08-28T06:28:13.925Z,75424
2016-08-28T06:29:59.113Z,76832
2016-08-28T06:31:59.169Z,80256
2016-08-28T06:32:59.194Z,74080
2016-08-28T06:34:14.156Z,79072
2016-08-28T06:34:59.266Z,81824
2016-08-28T06:35:59.307Z,79040
2016-08-28T06:36:59.328Z,76672
2016-08-28T06:37:59.368Z,78080
2016-08-28T06:38:59.406Z,75392
2016-08-28T06:39:59.471Z,77824
2016-08-28T06:40:59.466Z,78240
2016-08-28T06:42:59.559Z,80608
2016-08-28T06:44:14.515Z,79968
2016-08-28T06:45:14.555Z,78336
2016-08-28T06:45:59.668Z,79776
2016-08-28T06:46:59.705Z,79264
2016-08-28T06:47:59.759Z,74912
2016-08-28T06:48:59.771Z,73696
2016-08-28T06:49:59.819Z,76832
2016-08-28T06:50:59.846Z,77056
2016-08-28T06:51:59.908Z,77984
2016-08-28T06:53:14.854Z,80832
2016-08-28T06:53:59.969Z,80960
2016-08-28T06:55:00.021Z,82560
2016-08-28T06:56:00.044Z,82144
2016-08-28T06:57:00.064Z,79232
2016-08-28T06:58:00.116Z,77664
2016-08-28T06:59:00.156Z,79968
2016-08-28T07:00:15.118Z,79648
2016-08-28T07:02:00.255Z,76224
2016-08-28T07:03:00.302Z,74816
2016-08-28T07:04:00.345Z,72960
2016-08-28T07:05:00.407Z,69216
2016-08-28T07:06:00.401Z,71808
2016-08-28T07:07:00.505Z,75648
2016-08-28T07:08:00.484Z,76960
2016-08-28T07:09:15.465Z,74240
2016-08-28T07:10:00.558Z,75136
2016-08-28T07:11:00.606Z,76448
2016-08-28T07:12:00.661Z,74400
2016-08-28T07:13:00.671Z,78016
2016-08-28T07:14:00.710Z,75392
2016-08-28T07:15:30.607Z,73312
2016-08-28T07:16:15.707Z,74816
2016-08-28T07:17:00.828Z,69888
2016-08-28T07:18:00.859Z,68768
2016-08-28T07:19:00.894Z,75072
2016-08-28T07:20:00.952Z,71008
2016-08-28T07:22:01.015Z,74592
2016-08-28T07:24:01.090Z,71488
2016-08-28T07:25:01.147Z,72640
2016-08-28T07:26:01.164Z,70720
2016-08-28T07:27:01.226Z,67840
2016-08-28T07:28:16.858Z,67232
2016-08-28T07:29:01.289Z,63456
2016-08-28T07:30:01.320Z,60160
2016-08-28T07:31:01.378Z,61984
2016-08-28T07:33:01.440Z,68928
2016-08-28T07:34:01.471Z,69248
2016-08-28T07:35:01.548Z,67840
2016-08-28T07:36:01.571Z,65664
2016-08-28T07:37:01.597Z,63264
2016-08-28T07:38:01.645Z,66016
2016-08-28T07:39:01.680Z,65760
2016-08-28T07:40:01.703Z,58048
2016-08-28T07:42:01.783Z,60448
2016-08-28T07:43:16.754Z,61664
2016-08-28T07:44:01.862Z,61984
2016-08-28T07:45:16.884Z,59392
2016-08-28T07:46:01.940Z,58400
2016-08-28T07:47:16.900Z,58656
2016-08-28T07:48:02.060Z,59584
2016-08-28T07:49:02.057Z,58016
2016-08-28T07:50:02.093Z,56896
2016-08-28T07:51:02.126Z,55968
2016-08-28T07:52:02.181Z,57888
2016-08-28T07:55:02.281Z,58944
2016-08-28T07:56:02.345Z,56160
2016-08-28T07:58:02.415Z,57152
2016-08-28T07:59:02.447Z,56992
2016-08-28T08:00:17.410Z,55328
2016-08-28T08:01:02.511Z,53888
2016-08-28T08:02:02.549Z,54688
2016-08-28T08:04:02.643Z,54336
2016-08-28T08:05:02.693Z,53632
2016-08-28T08:06:02.707Z,51296
2016-08-28T08:07:02.791Z,50880
2016-08-28T08:08:17.736Z,53728
2016-08-28T08:10:02.878Z,49952
2016-08-28T08:11:02.894Z,50112
2016-08-28T08:12:02.934Z,49408
2016-08-28T08:13:02.979Z,49408
2016-08-28T08:14:03.002Z,45440
2016-08-28T08:15:03.090Z,47456
2016-08-28T08:16:03.094Z,49792
2016-08-28T08:17:03.128Z,45952
2016-08-28T08:18:03.163Z,42784
2016-08-28T08:19:18.149Z,44960
2016-08-28T08:20:03.240Z,46240
2016-08-28T08:21:18.195Z,44800
2016-08-28T08:22:03.323Z,43968
2016-08-28T08:23:03.354Z,44256
2016-08-28T08:24:03.392Z,41856
2016-08-28T08:25:03.435Z,42368
2016-08-28T08:26:03.462Z,42208
2016-08-28T08:27:03.511Z,42496
2016-08-28T08:28:03.540Z,39392
2016-08-28T08:29:03.600Z,28256
2016-08-28T08:30:03.611Z,20672
2016-08-28T08:31:03.662Z,19296
2016-08-28T08:32:03.699Z,18944
2016-08-28T08:33:03.728Z,18752
2016-08-28T08:34:03.772Z,18624
2016-08-28T08:36:03.844Z,18432
2016-08-28T08:37:03.872Z,18272
2016-08-28T08:38:03.924Z,18208
2016-08-28T08:39:03.946Z,18144
2016-08-28T08:40:18.934Z,18144
2016-08-28T08:41:04.044Z,18112
2016-08-28T08:42:04.077Z,17984
2016-08-28T08:43:04.118Z,17920
2016-08-28T08:44:04.134Z,17952
2016-08-28T08:45:04.190Z,17888
2016-08-28T08:46:04.279Z,17856
2016-08-28T08:48:04.306Z,17696
2016-08-28T08:49:04.320Z,17664
2016-08-28T08:50:19.299Z,17376
2016-08-28T08:51:04.407Z,17440
2016-08-28T08:52:04.436Z,17176
2016-08-28T08:53:04.480Z,16924
2016-08-28T08:54:19.432Z,16792
2016-08-28T08:56:04.583Z,16776
2016-08-28T08:57:19.576Z,17000
2016-08-28T08:58:04.666Z,17020
2016-08-28T08:59:04.706Z,16928
2016-08-28T09:00:04.725Z,16792
2016-08-28T09:01:04.770Z,16476
2016-08-28T09:02:04.840Z,16712
2016-08-28T09:03:19.772Z,16532
2016-08-28T09:04:04.900Z,16604
2016-08-28T09:05:04.923Z,16592
2016-08-28T09:06:19.898Z,16516
2016-08-28T09:07:05.003Z,16488
2016-08-28T09:08:05.036Z,16384
2016-08-28T09:09:05.087Z,16320
2016-08-28T09:10:05.098Z,16276
2016-08-28T09:11:05.174Z,16176
2016-08-28T09:12:05.188Z,16156
2016-08-28T09:13:05.218Z,16040
2016-08-28T09:14:05.306Z,15960
2016-08-28T09:15:05.308Z,15872
2016-08-28T09:16:20.254Z,15824
2016-08-28T09:17:05.361Z,15800
2016-08-28T09:18:05.395Z,15752
2016-08-28T09:19:05.459Z,15656
2016-08-28T09:20:20.396Z,15596
2016-08-28T09:21:05.507Z,15536
2016-08-28T09:22:20.470Z,15440
2016-08-28T09:23:20.511Z,15384
2016-08-28T09:24:05.644Z,15344
2016-08-28T09:25:05.656Z,15296
2016-08-28T09:26:20.634Z,15236
2016-08-28T09:27:05.728Z,15180
2016-08-28T09:28:05.790Z,15136
2016-08-28T09:29:05.814Z,15044
2016-08-28T09:30:05.839Z,14976
2016-08-28T09:31:05.874Z,14952
2016-08-28T09:32:05.912Z,14852
2016-08-28T09:34:05.993Z,14804
2016-08-28T09:35:06.038Z,14768
2016-08-28T09:36:06.062Z,14728
2016-08-28T09:37:06.096Z,14680
2016-08-28T09:38:21.058Z,14540
2016-08-28T09:39:06.193Z,14616
2016-08-28T09:40:06.215Z,14192
2016-08-28T09:41:06.240Z,12824
2016-08-28T09:42:06.269Z,11720
2016-08-28T09:43:06.336Z,10116
2016-08-28T09:44:06.352Z,14364
2016-08-28T09:45:06.398Z,14216
2016-08-28T09:46:06.431Z,14272
2016-08-28T09:47:06.453Z,14164
2016-08-28T09:48:06.494Z,14060
2016-08-28T09:49:06.555Z,13628
2016-08-28T09:50:06.569Z,13448
2016-08-28T09:51:06.629Z,13584
2016-08-28T09:52:06.644Z,13712
2016-08-28T09:53:06.667Z,13448
2016-08-28T09:54:21.650Z,13356
2016-08-28T09:55:21.670Z,13084
2016-08-28T09:56:06.796Z,12708
2016-08-28T09:57:06.827Z,13420
2016-08-28T09:58:21.808Z,13276
2016-08-28T09:59:21.826Z,13188
2016-08-28T10:00:06.937Z,13188
2016-08-28T10:01:06.968Z,13128
2016-08-28T10:02:07.002Z,12808
2016-08-28T10:03:07.054Z,12652
2016-08-28T10:04:07.077Z,12952
2016-08-28T10:05:07.119Z,12812
2016-08-28T10:07:07.175Z,13128
2016-08-28T10:08:22.142Z,12984
2016-08-28T10:09:07.276Z,12808
2016-08-28T10:10:22.209Z,12680
2016-08-28T10:11:07.343Z,12884
2016-08-28T10:12:07.360Z,12684
2016-08-28T10:13:07.389Z,12516
2016-08-28T10:14:07.489Z,12396
2016-08-28T10:15:07.481Z,12132
2016-08-28T10:16:07.564Z,12072
2016-08-28T10:18:22.524Z,11580
2016-08-28T10:19:07.615Z,11356
2016-08-28T10:20:07.645Z,10748
2016-08-28T10:21:07.690Z,10504
2016-08-28T10:22:07.743Z,9704
2016-08-28T10:23:07.776Z,10416
2016-08-28T10:24:07.804Z,10796
2016-08-28T10:25:22.773Z,10708
2016-08-28T10:26:08.563Z,10920
2016-08-28T10:27:07.909Z,11168
2016-08-28T10:28:07.938Z,10724
2016-08-28T10:29:07.969Z,10752
2016-08-28T10:30:08.013Z,10984
2016-08-28T10:31:08.038Z,11284
2016-08-28T10:32:23.008Z,10824
2016-08-28T10:33:08.110Z,10632
2016-08-28T10:34:08.150Z,10204
2016-08-28T10:35:08.180Z,9932
2016-08-28T10:36:08.224Z,9768
2016-08-28T10:37:08.263Z,10200
2016-08-28T10:38:08.293Z,11312
2016-08-28T10:39:08.348Z,11572
2016-08-28T10:40:08.371Z,11824
2016-08-28T10:42:08.441Z,12136
2016-08-28T10:43:08.470Z,12200
2016-08-28T10:44:08.528Z,12560
2016-08-28T10:45:08.537Z,12512
2016-08-28T10:46:08.562Z,12532
2016-08-28T10:47:08.620Z,12464
2016-08-28T10:48:08.642Z,12584
2016-08-28T10:49:08.664Z,12988
2016-08-28T10:50:08.723Z,12864
2016-08-28T10:51:08.749Z,12692
2016-08-28T10:52:08.784Z,12788
2016-08-28T10:53:08.843Z,12956
2016-08-28T10:54:23.773Z,12692
2016-08-28T10:55:23.844Z,11912
2016-08-28T10:57:23.873Z,11568
2016-08-28T10:58:09.003Z,11284
2016-08-28T10:59:09.022Z,10668
2016-08-28T11:00:09.048Z,10296
2016-08-28T11:01:09.094Z,10176
2016-08-28T11:02:09.835Z,9800
2016-08-28T11:03:09.169Z,10092
2016-08-28T11:04:09.201Z,10152
2016-08-28T11:05:09.247Z,10268
2016-08-28T11:06:09.263Z,10112
2016-08-28T11:07:09.312Z,9956
2016-08-28T11:08:09.338Z,9856
2016-08-28T11:09:09.364Z,9612
2016-08-28T11:10:09.428Z,9084
2016-08-28T11:11:09.436Z,8780
2016-08-28T11:12:09.488Z,8564
2016-08-28T11:13:24.435Z,8616
2016-08-28T11:14:09.607Z,8348
2016-08-28T11:15:09.585Z,8320
2016-08-28T11:16:09.627Z,8372
2016-08-28T11:17:09.653Z,8292
2016-08-28T11:18:24.611Z,7668
2016-08-28T11:19:09.706Z,8080
2016-08-28T11:20:10.441Z,7920
2016-08-28T11:22:09.827Z,7584
2016-08-28T11:23:09.855Z,7568
2016-08-28T11:24:25.499Z,7716
2016-08-28T11:25:09.928Z,7728
2016-08-28T11:26:24.879Z,7892
2016-08-28T11:27:10.013Z,8044
2016-08-28T11:28:10.743Z,7708
2016-08-28T11:29:24.998Z,8032
2016-08-28T11:30:10.092Z,8052
2016-08-28T11:31:10.152Z,8164
2016-08-28T11:32:10.160Z,8172
2016-08-28T11:33:25.136Z,8092
2016-08-28T11:34:10.227Z,8016
2016-08-28T11:35:10.268Z,8088
2016-08-28T11:36:10.296Z,8080
2016-08-28T11:37:10.350Z,8088
2016-08-28T11:38:10.357Z,8068
2016-08-28T11:40:10.444Z,7992
2016-08-28T11:41:10.467Z,8020
2016-08-28T11:42:10.521Z,8036
2016-08-28T11:44:10.599Z,7752
2016-08-28T11:45:25.536Z,7508
2016-08-28T11:46:10.648Z,7440
2016-08-28T11:47:10.676Z,7416
2016-08-28T11:48:10.707Z,7520
2016-08-28T11:49:25.680Z,7312
2016-08-28T11:50:10.789Z,7408
2016-08-28T11:51:10.817Z,7588
2016-08-28T11:52:10.854Z,7600
2016-08-28T11:53:10.897Z,7480
2016-08-28T11:54:10.917Z,7348
2016-08-28T11:55:10.948Z,7364
2016-08-28T11:56:10.984Z,7188
2016-08-28T11:57:11.022Z,7224
2016-08-28T11:58:11.061Z,7264
2016-08-28T11:59:11.099Z,7148
2016-08-28T12:00:26.054Z,7188
2016-08-28T12:01:11.182Z,7184
2016-08-28T12:03:26.160Z,7204
2016-08-28T12:04:11.953Z,7336
2016-08-28T12:05:11.291Z,7280
2016-08-28T12:06:11.323Z,7372
2016-08-28T12:07:11.363Z,7492
2016-08-28T12:08:11.424Z,7472
2016-08-28T12:09:11.429Z,7684
2016-08-28T12:10:11.456Z,7972
2016-08-28T12:11:11.502Z,8176
2016-08-28T12:12:11.561Z,8352
2016-08-28T12:13:26.494Z,8548
2016-08-28T12:14:11.682Z,8784
2016-08-28T12:15:11.657Z,8688
2016-08-28T12:16:11.678Z,8448
2016-08-28T12:17:11.706Z,8140
2016-08-28T12:18:11.734Z,8036
2016-08-28T12:19:26.712Z,8116
2016-08-28T12:20:11.851Z,8156
2016-08-28T12:21:11.915Z,8400
2016-08-28T12:22:11.900Z,8452
2016-08-28T12:23:11.921Z,8008
2016-08-28T12:24:11.953Z,8316
2016-08-28T12:25:11.982Z,8220
2016-08-28T12:27:12.063Z,7796
2016-08-28T12:28:12.079Z,7632
2016-08-28T12:29:27.046Z,7812
2016-08-28T12:31:12.186Z,7976
2016-08-28T12:32:27.137Z,7660
2016-08-28T12:33:12.251Z,7492
2016-08-28T12:35:12.326Z,7876
2016-08-28T12:36:12.364Z,7920
2016-08-28T12:37:27.321Z,7980
2016-08-28T12:38:12.428Z,7896
2016-08-28T12:39:12.469Z,7728
2016-08-28T12:40:12.493Z,7504
2016-08-28T12:41:12.531Z,7520
2016-08-28T12:42:12.564Z,7804
2016-08-28T12:43:12.610Z,7880
2016-08-28T12:44:12.631Z,7728
2016-08-28T12:45:12.699Z,7516
2016-08-28T12:46:12.702Z,7240
2016-08-28T12:47:12.734Z,7304
2016-08-28T12:49:12.801Z,7088
2016-08-28T12:50:12.852Z,7108
2016-08-28T12:51:12.883Z,7284
2016-08-28T12:52:12.915Z,7468
2016-08-28T12:53:12.969Z,7460
2016-08-28T12:55:27.954Z,7044
2016-08-28T12:56:13.048Z,6992
2016-08-28T12:57:13.065Z,6844
2016-08-28T12:58:13.124Z,6860
2016-08-28T12:59:28.070Z,6944
2016-08-28T13:00:13.187Z,6880
2016-08-28T13:01:13.211Z,6980
2016-08-28T13:02:13.260Z,7020
2016-08-28T13:03:13.275Z,7120
2016-08-28T13:04:28.254Z,7312
2016-08-28T13:05:13.336Z,7428
2016-08-28T13:06:14.081Z,7840
2016-08-28T13:07:13.411Z,7996
2016-08-28T13:08:13.488Z,8260
2016-08-28T13:10:13.520Z,8496
2016-08-28T13:11:13.558Z,8572
2016-08-28T13:12:13.592Z,8696
2016-08-28T13:13:13.611Z,8760
2016-08-28T13:14:13.652Z,8680
2016-08-28T13:15:13.698Z,8512
2016-08-28T13:16:13.931Z,8696
2016-08-28T13:17:13.784Z,8636
2016-08-28T13:18:13.797Z,8456
2016-08-28T13:19:13.847Z,8480
2016-08-28T13:20:28.789Z,8520
2016-08-28T13:21:28.814Z,8364
2016-08-28T13:22:13.988Z,8436
2016-08-28T13:23:13.973Z,8452
2016-08-28T13:24:28.933Z,8400
2016-08-28T13:25:14.051Z,8340
2016-08-28T13:26:14.069Z,8152
2016-08-28T13:27:14.098Z,8144
2016-08-28T13:28:14.128Z,8040
2016-08-28T13:29:14.181Z,7928
2016-08-28T13:31:14.248Z,7820
2016-08-28T13:32:14.260Z,7824
2016-08-28T13:33:14.305Z,7716
2016-08-28T13:34:14.348Z,7808
2016-08-28T13:35:29.308Z,7760
2016-08-28T13:37:14.452Z,7656
2016-08-28T13:38:14.484Z,7608
2016-08-28T13:39:15.212Z,7520
2016-08-28T13:40:14.554Z,7468
2016-08-28T13:41:14.589Z,7384
2016-08-28T13:42:14.618Z,7264
2016-08-28T13:43:14.670Z,7176
2016-08-28T13:44:14.693Z,7052
2016-08-28T13:45:14.741Z,7004
2016-08-28T13:46:14.751Z,6924
2016-08-28T13:47:14.788Z,6852
2016-08-28T13:48:14.830Z,6780
2016-08-28T13:49:14.854Z,6692
2016-08-28T13:50:14.904Z,6620
2016-08-28T13:51:14.922Z,6552
2016-08-28T13:52:14.966Z,5892
2016-08-28T13:53:15.014Z,5208
2016-08-28T13:54:15.033Z,5712
2016-08-28T13:55:15.075Z,6176
2016-08-28T13:56:15.100Z,6232
2016-08-28T13:57:15.845Z,6192
2016-08-28T13:58:15.175Z,6232
2016-08-28T13:59:15.204Z,6224
2016-08-28T14:00:15.240Z,6136
2016-08-28T14:01:15.279Z,6144
2016-08-28T14:03:15.352Z,6080
2016-08-28T14:04:15.379Z,6060
2016-08-28T14:05:15.407Z,6112
2016-08-28T14:06:15.458Z,6156
2016-08-28T14:07:30.405Z,5576
2016-08-28T14:08:15.522Z,5316
2016-08-28T14:09:15.536Z,4924
2016-08-28T14:10:15.575Z,4576
2016-08-28T14:11:15.606Z,5092
2016-08-28T14:12:15.676Z,4136
2016-08-28T14:13:15.690Z,4012
2016-08-28T14:14:30.643Z,4260
2016-08-28T14:15:15.774Z,4364
2016-08-28T14:16:15.784Z,4616
2016-08-28T14:17:15.809Z,4512
2016-08-28T14:18:15.865Z,4636
2016-08-28T14:19:30.811Z,5068
2016-08-28T14:20:15.915Z,5524
2016-08-28T14:21:15.960Z,4940
2016-08-28T14:22:16.057Z,4728
2016-08-28T14:23:30.962Z,4104